Terminal Aerodrome Forecast
Issued by NWS Jackson, MS

Home | Current Version | Previous Version | Text Only | Print | Product List | Glossary On
Versions: 1 2 3 4 5 6 7 8 9 10 11 12
000
FTUS44 KJAN 282300
TAFHBG
TAF
KHBG 282334Z 2900/2924 00000KT P6SM FEW250
     FM291000 00000KT 4SM BR FEW250
     FM291100 00000KT 1 1/2SM BR FEW250
     FM291200 00000KT 1/2SM FG FEW250
     FM291300 00000KT 4SM BR SCT250
     FM291400 19006KT P6SM SCT250
     FM291800 21011G17KT P6SM SCT030 BKN250=

USA.gov is the U.S. government's official web portal to all federal, state and local government web resources and services.